Latest Coastal Weather Observations for King Island Airport

IDT60701

Issued at 6:41 pm EST Monday 1 June 2020 (issued every 10 minutes, with the page automatically refreshed every 10 minutes)

About coastal observations | Map of coastal stations | Coastal observations for TAS | Marine services | Other Formats
Station Details ID: 098017 Name: KING ISLAND AIRPORT Lat: -39.88 Lon: 143.89 Height: 35.42 m
Data from the previous 72 hours. | See also: Recent months at King Island Airport
Date/Time
EST
Wind Sea
Height
m
Swell Vis
km
Cloud Weather Temp
°C
Press
hPa
Rain since
9am
mm
Dir  Spd
kts
Gust
kts
Height
m
Period
s
Dir
01/06:30pm SW 18 26 - - - - 10 Partly cloudy - 9.8 1012.2 0.6
01/06:00pm SW 18 26 - - - - 10 Mostly cloudy - 9.5 1011.8 0.6
01/05:30pm SW 17 25 - - - - 10 Cloudy - 9.2 1011.1 0.6
01/05:00pm SW 17 26 - - - - 10 Cloudy - 9.7 1010.4 0.6
01/04:30pm SSW 22 29 - - - - 10 Cloudy - 9.7 1010.0 0.6
01/04:01pm SSW 22 32 - - - - 10 Partly cloudy - 9.2 1009.6 0.6
01/04:00pm SSW 23 32 - - - - 10 Partly cloudy - 9.1 1009.6 0.6
01/03:46pm SSW 23 33 - - - - 10 Partly cloudy - 8.9 1009.4 0.6
01/03:30pm SSW 23 31 - - - - 10 Partly cloudy - 9.2 1009.0 0.6
01/03:00pm SSW 24 37 - - - - 10 Cloudy - 9.9 1008.2 0.6
01/02:53pm SSW 25 35 - - - - 10 Partly cloudy - 10.2 1008.1 0.6
01/02:30pm SSW 28 35 - - - - 10 Partly cloudy - 9.6 1007.6 0.6
01/02:00pm SSW 29 41 - - - - 10 Partly cloudy - 9.9 1006.7 0.6
01/01:39pm SSW 27 37 - - - - 10 Partly cloudy - 9.7 1006.2 0.6
01/01:37pm SSW 27 37 - - - - 10 Partly cloudy - 9.8 1006.2 0.6
01/01:30pm SSW 30 38 - - - - 10 Partly cloudy - 9.4 1006.0 0.6
01/01:29pm SSW 30 38 - - - - 10 Partly cloudy - 9.4 1006.0 0.6
01/01:03pm SSW 30 40 - - - - 3 Partly cloudy - 9.7 1005.5 0.6
01/01:00pm SSW 31 40 - - - - 2 Partly cloudy - 9.6 1005.5 0.4
01/12:45pm SSW 28 40 - - - - 5 Cloudy - 10.6 1005.0 0.0
01/12:41pm SSW 29 40 - - - - 10 Cloudy - 10.7 1004.8 0.0
01/12:30pm SSW 29 37 - - - - 10 Partly cloudy - 11.2 1004.5 0.0
01/12:25pm SSW 27 34 - - - - 10 Partly cloudy - 11.9 1004.2 0.0
01/12:12pm SSW 17 28 - - - - 10 Partly cloudy - 14.0 1003.7 0.0
01/12:00pm SSW 16 19 - - - - 10 Mostly clear - 13.8 1003.4 0.0
01/11:30am SW 15 19 - - - - 10 Partly cloudy - 14.1 1002.9 0.0
01/11:00am SSW 11 17 - - - - 10 Partly cloudy - 13.4 1002.3 0.0
01/10:30am S 4 6 - - - - 10 Partly cloudy - 12.6 1001.9 0.0
01/10:00am ESE 5 6 - - - - 10 - - 12.3 1001.2 0.0
01/09:30am ESE 5 5 - - - - 10 - - 10.9 1000.9 0.0
01/09:00am ESE 5 6 - - - - 10 Mostly clear - 9.4 1000.3 2.4
01/08:30am ESE 4 5 - - - - 10 Partly cloudy - 9.7 999.7 2.4
01/08:00am NNE 5 9 - - - - 10 Partly cloudy - 9.9 999.3 2.4
01/07:30am NNW 9 12 - - - - 10 Partly cloudy - 10.3 998.9 2.4
01/07:00am NNW 10 13 - - - - - Partly cloudy - 10.5 998.6 2.4
01/06:30am NNW 9 15 - - - - - Cloudy - 10.4 998.3 2.4
01/06:00am NNW 11 13 - - - - - Mostly cloudy Recent precip. 10.5 998.3 2.4
01/05:30am NNW 15 20 - - - - - Partly cloudy - 10.4 998.2 2.4
01/05:00am NW 18 23 - - - - - Partly cloudy - 11.4 998.1 2.2
01/04:36am NNW 19 29 - - - - - Partly cloudy - 11.2 998.1 2.2
01/04:30am NNW 22 29 - - - - - Partly cloudy - 11.0 998.0 2.2
01/04:00am N 18 25 - - - - - Partly cloudy - 11.0 998.3 2.2
01/03:30am N 12 17 - - - - - Partly cloudy - 10.6 998.8 2.0
01/03:00am N 15 22 - - - - - Cloudy Rain 10.6 999.4 1.8
01/02:42am N 20 30 - - - - - Partly cloudy - 11.1 999.8 1.6
01/02:30am N 20 26 - - - - - Cloudy - 11.4 999.8 1.4
01/02:00am N 17 25 - - - - - Partly cloudy - 12.2 1000.1 1.2
01/01:30am N 17 22 - - - - - Cloudy - 12.1 1000.4 1.2
01/01:00am N 17 23 - - - - - Partly cloudy - 11.9 1000.9 1.2
01/12:30am N 17 27 - - - - - Partly cloudy - 11.7 1001.6 1.2
01/12:00am N 20 30 - - - - - Partly cloudy - 12.1 1002.0 1.2
 
Date/Time
EST
Wind Sea
Height
m
Swell Vis
km
Cloud Weather Temp
°C
Press
hPa
Rain since
9am
mm
Dir  Spd
kts
Gust
kts
Height
m
Period
s
Dir
31/11:44pm N 19 29 - - - - - Partly cloudy - 11.7 1002.3 1.2
31/11:30pm N 21 26 - - - - - Partly cloudy - 12.0 1002.4 1.2
31/11:00pm N 22 30 - - - - - Partly cloudy - 12.1 1002.9 1.2
31/10:35pm NNW 20 30 - - - - - Partly cloudy - 12.1 1003.5 1.2
31/10:30pm NNW 21 30 - - - - - Partly cloudy - 12.1 1003.6 1.2
31/10:00pm NNW 22 29 - - - - - Partly cloudy - 12.1 1003.9 1.2
31/09:30pm N 21 28 - - - - - Partly cloudy - 12.4 1004.3 1.2
31/09:00pm N 19 27 - - - - - Cloudy Recent precip. 11.9 1005.0 1.2
31/08:51pm N 17 27 - - - - - Partly cloudy - 11.9 1005.0 1.2
31/08:30pm N 15 22 - - - - - Partly cloudy - 11.9 1005.3 1.2
31/08:19pm NNW 13 19 - - - - - Partly cloudy - 11.5 1005.6 1.2
31/08:07pm NW 20 30 - - - - - Partly cloudy - 10.5 1005.9 1.0
31/08:00pm NW 22 30 - - - - - Partly cloudy - 10.6 1006.0 0.8
31/07:30pm NNW 13 21 - - - - - Partly cloudy - 11.8 1005.9 0.8
31/07:00pm NNW 13 16 - - - - - Partly cloudy - 11.1 1006.3 0.8
31/06:30pm NNW 16 20 - - - - - Partly cloudy - 11.3 1006.5 0.8
31/06:00pm NNW 11 16 - - - - - Cloudy - 11.3 1006.8 0.4
31/05:30pm NNW 16 23 - - - - - Partly cloudy - 11.1 1006.8 0.4
31/05:00pm NW 18 22 - - - - - Partly cloudy - 11.1 1006.9 0.4
31/04:49pm NNW 15 25 - - - - - Partly cloudy - 10.7 1007.1 0.4
31/04:30pm NNW 17 23 - - - - - Partly cloudy - 11.6 1007.1 0.2
31/04:07pm NW 15 27 - - - - - Partly cloudy - 12.1 1007.1 0.2
31/04:00pm WNW 11 17 - - - - - Partly cloudy - 11.4 1007.2 0.2
31/03:30pm NW 18 25 - - - - - Partly cloudy - 13.3 1007.1 0.2
31/03:00pm NNW 16 21 - - - - - Cloudy - 13.0 1007.2 0.2
31/02:30pm NW 19 23 - - - - - Partly cloudy - 13.5 1007.3 0.2
31/02:00pm WNW 19 23 - - - - - Partly cloudy - 13.2 1007.4 0.2
31/01:30pm NW 19 25 - - - - - Partly cloudy - 13.3 1007.6 0.2
31/01:00pm NW 18 23 - - - - - Partly cloudy - 13.8 1008.0 0.2
31/12:30pm NW 17 22 - - - - - Partly cloudy - 13.0 1008.3 0.2
31/12:00pm WNW 13 19 - - - - - Cloudy Rain 12.7 1008.9 0.2
31/11:47am NW 16 27 - - - - - Partly cloudy - 12.5 1009.1 0.0
31/11:30am WNW 16 21 - - - - - Cloudy - 13.4 1009.4 0.0
31/11:00am NW 13 16 - - - - - Partly cloudy - 13.2 1009.6 0.0
31/10:30am WNW 10 14 - - - - - Partly cloudy - 11.6 1009.9 0.0
31/10:00am WNW 17 27 - - - - - Partly cloudy - 11.8 1010.2 0.0
31/09:55am NW 17 27 - - - - - Partly cloudy - 12.2 1010.0 0.0
31/09:30am WNW 15 20 - - - - - Partly cloudy - 11.9 1009.7 0.0
31/09:00am NW 14 22 - - - - - Cloudy Rain 11.2 1009.6 4.6
31/08:49am NW 16 26 - - - - - Partly cloudy - 12.1 1009.6 4.2
31/08:30am NW 16 19 - - - - - Partly cloudy - 11.6 1009.5 4.2
31/08:00am WNW 14 18 - - - - - - - 11.5 1009.2 4.2
31/07:30am W 14 23 - - - - - Partly cloudy - 11.7 1009.3 4.2
31/07:00am NW 17 22 - - - - - Partly cloudy - 12.0 1009.1 4.0
31/06:30am NW 17 22 - - - - - Partly cloudy - 11.8 1008.9 4.0
31/06:00am NW 17 21 - - - - - Mostly cloudy - 12.0 1008.8 4.0
31/05:30am WNW 13 17 - - - - - Partly cloudy - 12.1 1008.4 4.0
31/05:00am WNW 13 15 - - - - - Partly cloudy - 11.6 1008.2 4.0
31/04:30am WNW 11 15 - - - - - Partly cloudy - 11.8 1008.1 4.0
31/04:00am W 12 17 - - - - - Partly cloudy - 12.2 1008.0 4.0
31/03:30am W 13 19 - - - - - Partly cloudy - 11.5 1007.8 4.0
31/03:00am W 15 22 - - - - - Mostly cloudy Recent precip. 11.9 1007.8 4.0
31/02:30am WNW 14 17 - - - - - Partly cloudy - 11.8 1007.5 4.0
31/02:18am NW 19 26 - - - - 10 Partly cloudy - 11.6 1007.3 4.0
31/02:12am NW 24 29 - - - - 10 Partly cloudy - 11.4 1007.1 4.0
31/02:00am NNW 32 42 - - - - 1 Partly cloudy - 12.2 1006.5 3.8
31/01:52am NNW 29 39 - - - - 5 Partly cloudy - 12.4 1006.4 1.8
31/01:51am NNW 29 37 - - - - 5 Partly cloudy - 12.6 1006.4 1.6
31/01:30am NNW 27 34 - - - - 10 Partly cloudy - 13.0 1006.3 1.2
31/01:06am NNW 27 39 - - - - 10 Partly cloudy - 12.8 1006.5 1.2
31/01:00am NNW 27 36 - - - - 10 Partly cloudy - 12.8 1006.6 1.2
31/12:36am NNW 27 37 - - - - 10 Partly cloudy - 12.6 1006.8 1.2
31/12:30am NNW 29 37 - - - - 10 Partly cloudy - 12.6 1006.7 1.2
31/12:06am NNW 29 40 - - - - 9 Partly cloudy - 12.5 1007.0 1.2
31/12:00am NNW 32 42 - - - - 6 Cloudy Showers 12.5 1007.0 1.2
 
Date/Time
EST
Wind Sea
Height
m
Swell Vis
km
Cloud Weather Temp
°C
Press
hPa
Rain since
9am
mm
Dir  Spd
kts
Gust
kts
Height
m
Period
s
Dir
30/11:54pm NNW 31 42 - - - - 5 Partly cloudy - 12.4 1007.0 1.0
30/11:30pm NNW 28 42 - - - - 10 Partly cloudy - 13.0 1006.9 0.8
30/11:00pm NNW 28 39 - - - - 10 Partly cloudy - 13.0 1007.3 0.8
30/10:49pm NNW 27 37 - - - - 10 Partly cloudy - 13.0 1007.3 0.8
30/10:30pm NNW 29 38 - - - - 8 Partly cloudy - 13.3 1007.6 0.6
30/10:00pm N 24 35 - - - - 10 Cloudy - 14.8 1007.2 0.0
30/09:30pm N 24 35 - - - - - Partly cloudy - 15.2 1007.1 0.0
30/09:00pm N 25 35 - - - - - Cloudy - 15.1 1007.4 0.0
30/08:38pm N 25 37 - - - - - Cloudy - 14.9 1007.5 0.0
30/08:30pm N 24 33 - - - - - Cloudy - 14.8 1007.7 0.0
30/08:03pm N 24 34 - - - - - - - 14.8 1007.8 0.0
30/08:00pm N 23 32 - - - - - - - 14.9 1007.9 0.0
30/07:57pm N 22 32 - - - - - - - 14.7 1008.0 0.0
30/07:30pm N 21 29 - - - - - - - 14.6 1008.4 0.0
30/07:00pm N 15 22 - - - - - - - 13.7 1008.9 0.0
30/06:30pm N 18 24 - - - - - - - 13.8 1008.8 0.0
30/06:00pm N 18 23 - - - - - Mostly cloudy - 13.8 1008.9 0.0
30/05:30pm NNE 17 22 - - - - - - - 13.8 1008.6 0.0
30/05:00pm N 18 29 - - - - - - - 14.1 1009.0 0.0
30/04:40pm N 19 29 - - - - - - - 14.3 1009.2 0.0
30/04:30pm N 21 29 - - - - - - - 14.6 1009.1 0.0
30/04:21pm N 19 29 - - - - - - - 15.0 1009.3 0.0
30/04:00pm N 17 22 - - - - 10 - - 15.0 1009.6 0.0
30/03:30pm NNE 17 23 - - - - 10 - - 14.8 1010.3 0.0
30/03:00pm NNE 20 27 - - - - 10 - - 14.7 1010.8 0.0
30/02:30pm NNE 20 29 - - - - 10 - - 14.8 1011.6 0.0
30/02:00pm NNE 19 26 - - - - 10 - - 15.5 1012.2 0.0
30/01:30pm NNE 21 28 - - - - 10 - - 15.3 1012.9 0.0
30/01:00pm N 21 30 - - - - 10 - - 15.2 1013.6 0.0
30/12:30pm N 21 32 - - - - 10 - - 15.4 1014.3 0.0
30/12:00pm N 18 28 - - - - 10 - - 15.5 1015.3 0.0
30/11:49am N 19 29 - - - - 10 - - 15.7 1015.7 0.0
30/11:30am N 23 30 - - - - - - - 15.0 1016.1 0.0
30/11:00am N 23 32 - - - - - - - 14.7 1016.7 0.0
30/10:46am N 23 34 - - - - - - - 14.6 1017.0 0.0
30/10:30am N 23 31 - - - - - - - 14.5 1017.1 0.0
30/10:00am N 21 29 - - - - - - - 14.3 1017.8 0.0
30/09:30am N 19 26 - - - - - - - 14.0 1018.2 0.0
30/09:00am N 17 22 - - - - - - - 13.6 1018.5 0.0
30/08:30am N 19 25 - - - - - - - 12.9 1018.8 0.0
30/08:00am N 17 21 - - - - - - - 12.4 1018.9 0.0
30/07:30am N 14 19 - - - - - - - 11.9 1019.1 0.0
30/07:00am N 12 16 - - - - - - - 11.4 1019.1 0.0
30/06:30am NNE 10 13 - - - - - - - 10.8 1019.1 0.0
30/06:00am NNE 9 10 - - - - - - - 10.1 1019.0 0.0
30/05:30am NNE 9 12 - - - - - - - 10.4 1019.0 0.0
30/05:00am N 12 15 - - - - - - - 11.5 1019.1 0.0
30/04:30am N 11 16 - - - - - - - 11.4 1019.3 0.0
30/04:00am N 12 15 - - - - - - - 11.3 1019.5 0.0
30/03:30am N 10 12 - - - - - - - 10.6 1019.8 0.0
30/03:00am NNE 6 8 - - - - - - - 9.2 1020.1 0.0
30/02:30am NNE 8 9 - - - - - - - 9.6 1020.1 0.0
30/02:00am NNE 8 9 - - - - - - - 9.4 1020.2 0.0
30/01:30am NNE 7 8 - - - - - - - 10.0 1020.4 0.0
30/01:00am NNE 8 11 - - - - - - - 10.7 1020.7 0.0
30/12:30am NNE 7 9 - - - - 10 Partly cloudy - 10.6 1021.2 0.0
30/12:00am NNE 7 9 - - - - 10 Cloudy - 11.4 1021.6 0.0
 
Date/Time
EST
Wind Sea
Height
m
Swell Vis
km
Cloud Weather Temp
°C
Press
hPa
Rain since
9am
mm
Dir  Spd
kts
Gust
kts
Height
m
Period
s
Dir
29/11:30pm NNE 8 9 - - - - 10 Partly cloudy - 11.3 1021.8 0.0
29/11:00pm NNE 8 9 - - - - 10 Partly cloudy - 10.8 1022.0 0.0
29/10:30pm NNE 6 7 - - - - 10 Partly cloudy - 10.7 1022.1 0.0
29/10:00pm N 8 10 - - - - 10 Partly cloudy - 11.8 1022.4 0.0
29/09:30pm N 9 11 - - - - 10 Partly cloudy - 12.7 1022.6 0.0
29/09:00pm N 6 9 - - - - 10 Mostly cloudy - 12.0 1022.7 0.0
29/08:30pm N 8 11 - - - - 10 Partly cloudy - 12.5 1022.7 0.0
29/08:00pm NNW 11 15 - - - - 10 Partly cloudy - 13.3 1022.7 0.0
29/07:30pm NNW 11 15 - - - - 10 - - 12.8 1022.6 0.0
29/07:00pm NNW 12 15 - - - - 10 - - 12.8 1022.5 0.0

Other formats

Comma delimited format used in spreadsheet applications
http://www.bom.gov.au/fwo/IDT60701/IDT60701.94850.axf

JavaScript Object Notation format (JSON) in row-major order
http://www.bom.gov.au/fwo/IDT60701/IDT60701.94850.json

Data quality

Most of these data are generated automatically and are frequently updated. Quality checks on data are not normally performed. It is possible for incorrect values to appear. Refer to information at About Latest Weather Observations and please check the disclaimer before using these data.